sensor_id;sensor_type;location;lat;lon;timestamp;pressure;altitude;pressure_sealevel;temperature;humidity
63582;BME280;49727;51.078;17.066;2023-06-26T00:09:00;100241.94;;;19.88;61.69
63582;BME280;49727;51.078;17.066;2023-06-26T00:24:00;100248.63;;;18.81;62.04
63582;BME280;49727;51.078;17.066;2023-06-26T00:39:01;100244.72;;;18.01;63.65
63582;BME280;49727;51.078;17.066;2023-06-26T00:54:02;100224.72;;;17.45;65.39
63582;BME280;49727;51.078;17.066;2023-06-26T01:09:02;100224.47;;;17.08;66.76
63582;BME280;49727;51.078;17.066;2023-06-26T01:24:16;100219.31;;;16.86;67.88
63582;BME280;49727;51.078;17.066;2023-06-26T01:39:20;100216.03;;;16.71;68.69
63582;BME280;49727;51.078;17.066;2023-06-26T01:54:22;100203.88;;;16.48;69.59
63582;BME280;49727;51.078;17.066;2023-06-26T02:09:24;100194.59;;;16.31;70.17
63582;BME280;49727;51.078;17.066;2023-06-26T02:24:24;100193.16;;;16.08;71.06
63582;BME280;49727;51.078;17.066;2023-06-26T02:39:24;100192.94;;;15.96;71.26
63582;BME280;49727;51.078;17.066;2023-06-26T02:54:25;100202.22;;;15.94;71.93
63582;BME280;49727;51.078;17.066;2023-06-26T03:09:25;100192.53;;;15.93;72.34
63582;BME280;49727;51.078;17.066;2023-06-26T03:24:26;100187.34;;;16.04;72.90
63582;BME280;49727;51.078;17.066;2023-06-26T03:39:26;100188.16;;;16.25;72.47
63582;BME280;49727;51.078;17.066;2023-06-26T03:54:26;100179.06;;;16.39;72.44
63582;BME280;49727;51.078;17.066;2023-06-26T04:09:27;100179.44;;;16.63;72.57
63582;BME280;49727;51.078;17.066;2023-06-26T04:24:27;100188.06;;;16.99;72.87
63582;BME280;49727;51.078;17.066;2023-06-26T04:39:28;100170.34;;;17.62;72.33
63582;BME280;49727;51.078;17.066;2023-06-26T04:54:28;100180.78;;;18.15;71.33
63582;BME280;49727;51.078;17.066;2023-06-26T05:09:28;100173.38;;;18.73;70.18
63582;BME280;49727;51.078;17.066;2023-06-26T05:24:30;100168.22;;;19.39;68.61
63582;BME280;49727;51.078;17.066;2023-06-26T05:39:30;100164.41;;;20.01;67.06
63582;BME280;49727;51.078;17.066;2023-06-26T05:54:31;100164.63;;;20.82;65.32
63582;BME280;49727;51.078;17.066;2023-06-26T06:09:31;100167.13;;;21.53;62.79
63582;BME280;49727;51.078;17.066;2023-06-26T06:24:32;100164.44;;;22.38;61.46
63582;BME280;49727;51.078;17.066;2023-06-26T06:39:32;100166.38;;;23.26;58.34
63582;BME280;49727;51.078;17.066;2023-06-26T06:54:51;100165.69;;;23.69;55.63
63582;BME280;49727;51.078;17.066;2023-06-26T07:09:51;100155.00;;;24.64;53.84
63582;BME280;49727;51.078;17.066;2023-06-26T07:24:52;100148.78;;;24.74;51.04
63582;BME280;49727;51.078;17.066;2023-06-26T07:39:52;100145.50;;;25.56;48.25
63582;BME280;49727;51.078;17.066;2023-06-26T07:54:53;100144.41;;;26.14;46.33
63582;BME280;49727;51.078;17.066;2023-06-26T08:09:53;100132.63;;;27.05;44.93
63582;BME280;49727;51.078;17.066;2023-06-26T08:24:53;100132.47;;;26.80;41.10
63582;BME280;49727;51.078;17.066;2023-06-26T08:39:54;100115.06;;;26.71;41.31
63582;BME280;49727;51.078;17.066;2023-06-26T08:54:57;100122.28;;;27.46;39.45
63582;BME280;49727;51.078;17.066;2023-06-26T09:09:58;100107.38;;;27.92;37.25
63582;BME280;49727;51.078;17.066;2023-06-26T09:24:58;100100.53;;;27.95;36.95
63582;BME280;49727;51.078;17.066;2023-06-26T09:39:58;100088.81;;;28.67;35.56
63582;BME280;49727;51.078;17.066;2023-06-26T09:55:08;100081.19;;;29.73;35.09
63582;BME280;49727;51.078;17.066;2023-06-26T10:10:10;100075.88;;;28.92;34.58
63582;BME280;49727;51.078;17.066;2023-06-26T10:25:15;100060.94;;;29.36;34.21
63582;BME280;49727;51.078;17.066;2023-06-26T10:40:28;100063.94;;;28.82;34.03
63582;BME280;49727;51.078;17.066;2023-06-26T10:55:28;100048.06;;;30.67;31.03
63582;BME280;49727;51.078;17.066;2023-06-26T11:10:29;100032.84;;;30.19;32.00
63582;BME280;49727;51.078;17.066;2023-06-26T11:25:30;100018.47;;;30.64;31.77
63582;BME280;49727;51.078;17.066;2023-06-26T11:40:35;100009.66;;;31.12;30.89
63582;BME280;49727;51.078;17.066;2023-06-26T11:55:41;99997.81;;;30.38;31.40
63582;BME280;49727;51.078;17.066;2023-06-26T12:10:41;99969.41;;;30.57;32.02
63582;BME280;49727;51.078;17.066;2023-06-26T12:25:43;99963.44;;;30.27;31.22
63582;BME280;49727;51.078;17.066;2023-06-26T12:40:46;99950.22;;;30.15;32.22
63582;BME280;49727;51.078;17.066;2023-06-26T12:55:46;99931.03;;;29.60;33.42
63582;BME280;49727;51.078;17.066;2023-06-26T13:10:47;99921.28;;;29.81;33.32
63582;BME280;49727;51.078;17.066;2023-06-26T13:25:47;99897.97;;;29.51;33.21
63582;BME280;49727;51.078;17.066;2023-06-26T13:40:47;99870.09;;;29.16;34.04
63582;BME280;49727;51.078;17.066;2023-06-26T13:55:48;99857.25;;;28.97;34.95
63582;BME280;49727;51.078;17.066;2023-06-26T14:10:48;99834.13;;;29.03;35.43
63582;BME280;49727;51.078;17.066;2023-06-26T14:25:49;99821.22;;;28.90;35.47
63582;BME280;49727;51.078;17.066;2023-06-26T14:40:49;99797.19;;;29.29;34.97
63582;BME280;49727;51.078;17.066;2023-06-26T14:55:49;99773.66;;;28.67;36.02
63582;BME280;49727;51.078;17.066;2023-06-26T15:10:49;99765.44;;;28.67;37.01
63582;BME280;49727;51.078;17.066;2023-06-26T15:25:50;99741.28;;;28.36;37.18
63582;BME280;49727;51.078;17.066;2023-06-26T15:40:51;99720.00;;;28.47;37.71
63582;BME280;49727;51.078;17.066;2023-06-26T15:55:52;99702.69;;;28.51;37.79
63582;BME280;49727;51.078;17.066;2023-06-26T16:10:53;99695.19;;;28.57;38.57
63582;BME280;49727;51.078;17.066;2023-06-26T16:25:53;99698.69;;;28.44;38.89
63582;BME280;49727;51.078;17.066;2023-06-26T16:40:53;99680.28;;;28.16;38.67
63582;BME280;49727;51.078;17.066;2023-06-26T16:55:54;99664.03;;;28.06;39.86
63582;BME280;49727;51.078;17.066;2023-06-26T17:10:54;99666.88;;;27.82;40.75
63582;BME280;49727;51.078;17.066;2023-06-26T17:25:54;99653.59;;;27.37;42.16
63582;BME280;49727;51.078;17.066;2023-06-26T17:40:57;99650.28;;;27.35;42.51
63582;BME280;49727;51.078;17.066;2023-06-26T17:55:57;99634.59;;;26.83;43.95
63582;BME280;49727;51.078;17.066;2023-06-26T18:10:58;99612.28;;;26.52;45.69
63582;BME280;49727;51.078;17.066;2023-06-26T18:25:59;99600.53;;;26.27;46.62
63582;BME280;49727;51.078;17.066;2023-06-26T18:40:59;99571.13;;;25.60;48.17
63582;BME280;49727;51.078;17.066;2023-06-26T18:55:59;99564.63;;;25.11;49.60
63582;BME280;49727;51.078;17.066;2023-06-26T19:10:59;99562.63;;;24.82;50.84
63582;BME280;49727;51.078;17.066;2023-06-26T19:26:00;99583.16;;;24.44;52.27
63582;BME280;49727;51.078;17.066;2023-06-26T19:41:00;99588.97;;;24.01;52.67
63582;BME280;49727;51.078;17.066;2023-06-26T19:56:00;99600.13;;;23.63;53.18
63582;BME280;49727;51.078;17.066;2023-06-26T20:11:01;99796.94;;;21.79;58.42
63582;BME280;49727;51.078;17.066;2023-06-26T20:26:01;99760.97;;;21.01;66.30
63582;BME280;49727;51.078;17.066;2023-06-26T20:41:02;99786.88;;;20.74;69.23
63582;BME280;49727;51.078;17.066;2023-06-26T20:56:02;99780.06;;;20.72;69.31
63582;BME280;49727;51.078;17.066;2023-06-26T21:11:03;99823.44;;;20.94;70.54
63582;BME280;49727;51.078;17.066;2023-06-26T21:26:03;99866.50;;;20.61;70.63
63582;BME280;49727;51.078;17.066;2023-06-26T21:41:03;99846.34;;;19.94;72.32
63582;BME280;49727;51.078;17.066;2023-06-26T21:56:04;99826.69;;;20.45;73.31
63582;BME280;49727;51.078;17.066;2023-06-26T22:11:04;99805.13;;;20.50;73.92
63582;BME280;49727;51.078;17.066;2023-06-26T22:26:05;99828.81;;;20.43;73.88
63582;BME280;49727;51.078;17.066;2023-06-26T22:41:06;99761.44;;;20.41;74.45
63582;BME280;49727;51.078;17.066;2023-06-26T22:56:07;99776.09;;;20.62;74.75
63582;BME280;49727;51.078;17.066;2023-06-26T23:11:07;99796.84;;;20.57;74.22
63582;BME280;49727;51.078;17.066;2023-06-26T23:26:07;99789.53;;;20.23;73.71
63582;BME280;49727;51.078;17.066;2023-06-26T23:41:12;99796.56;;;19.67;74.44
63582;BME280;49727;51.078;17.066;2023-06-26T23:56:13;99813.41;;;19.45;75.26
